Latest Coastal Weather Observations for Rundle Island

IDQ60701

Issued at 3:42 am EST Sunday 1 February 2015 (issued every 10 minutes, with the page automatically refreshed every 10 minutes)

About coastal observations | Map of coastal stations | Coastal observations for QLD | Marine services | Other Formats
Station Details ID: 039322 Name: RUNDLE ISLAND Lat: -23.53 Lon: 151.28 Height: 19.8 m
Data from the previous 72 hours. | See also: Recent months at Rundle Island
Date/Time
EST
Temp

°C
Wind Pressure Rain
since 9am
mm
Weather Cloud Vis
km
Sea
Height
m
Swell
Dir
 
Speed
knots
Gust
knots
hPa Trend Height
m
Period
s
Dir
01/03:30am 27.0 NNW 9 11 1005.3 - - - - - - - - -
01/03:00am 27.2 N 9 11 1005.5 - - - - - - - - -
01/02:30am 27.2 N 8 10 1005.6 - - - - - - - - -
01/02:00am 27.2 N 8 10 1005.8 - - - - - - - - -
01/01:30am 27.4 N 9 10 1006.0 - - - - - - - - -
01/01:00am 27.5 N 8 9 1006.4 - - - - - - - - -
01/12:30am 27.5 N 7 8 1006.6 - - - - - - - - -
01/12:00am 27.6 N 6 7 1006.8 - - - - - - - - -
 
Date/Time
EST
Temp

°C
Wind Pressure Rain
since 9am
mm
Weather Cloud Vis
km
Sea
Height
m
Swell
Dir
 
Speed
knots
Gust
knots
hPa Trend Height
m
Period
s
Dir
31/11:30pm 27.6 N 5 6 1006.8 - - - - - - - - -
31/11:00pm 27.6 N 6 7 1006.9 - - - - - - - - -
31/10:30pm 27.7 N 6 7 1007.0 - - - - - - - - -
31/10:00pm 27.6 NNE 6 8 1007.0 - - - - - - - - -
31/09:30pm 27.6 NNE 7 8 1006.8 - - - - - - - - -
31/09:00pm 27.6 NNE 7 8 1006.6 - - - - - - - - -
31/08:30pm 27.6 NNE 8 10 1006.5 - - - - - - - - -
31/08:00pm 27.6 NNE 10 11 1006.0 - - - - - - - - -
31/07:30pm 27.5 NNE 10 12 1005.9 - - - - - - - - -
31/07:00pm 27.8 NNE 10 12 1005.7 - - - - - - - - -
31/06:30pm 27.7 NNE 9 11 1005.5 - - - - - - - - -
31/06:00pm 27.8 NNE 9 11 1005.4 - - - - - - - - -
31/05:30pm 28.0 NE 11 12 1004.9 - - - - - - - - -
31/05:00pm 28.2 NE 10 12 1004.5 - - - - - - - - -
31/04:30pm 28.2 NNE 9 11 1004.6 - - - - - - - - -
31/04:00pm 28.4 NNE 9 10 1004.5 - - - - - - - - -
31/03:30pm 28.3 NNE 8 10 1004.6 - - - - - - - - -
31/03:00pm 28.5 NNE 8 10 1005.1 - - - - - - - - -
31/02:30pm 28.0 N 7 9 1005.6 - - - - - - - - -
31/02:00pm 27.7 N 6 8 1006.0 - - - - - - - - -
31/01:30pm 27.7 N 6 7 1006.5 - - - - - - - - -
31/01:00pm 27.6 N 6 7 1006.9 - - - - - - - - -
31/12:30pm 27.6 NNE 5 7 1007.1 - - - - - - - - -
31/12:00pm 27.9 NNE 4 6 1007.4 - - - - - - - - -
31/11:30am 28.5 NNE 4 6 1007.6 - - - - - - - - -
31/11:00am 28.6 CALM 0 0 1007.9 - - - - - - - - -
31/10:30am 29.2 E 1 2 1008.0 - - - - - - - - -
31/10:00am 29.3 SE 2 4 1008.1 - - - - - - - - -
31/09:30am 27.6 SSW 3 4 1008.4 - - - - - - - - -
31/09:00am 27.5 SSW 4 5 1008.5 - - - - - - - - -
31/08:30am 27.1 S 5 7 1008.6 - - - - - - - - -
31/08:00am 26.8 S 7 8 1008.5 - - - - - - - - -
31/07:30am 26.4 S 6 8 1008.1 - - - - - - - - -
31/07:00am 25.8 S 7 9 1008.1 - - - - - - - - -
31/06:30am 25.7 S 8 9 1007.9 - - - - - - - - -
31/06:00am 26.4 ESE 3 5 1007.6 - - - - - - - - -
31/05:30am 26.1 ESE 5 6 1007.1 - - - - - - - - -
31/05:00am 26.0 ESE 5 7 1006.9 - - - - - - - - -
31/04:30am 26.1 ESE 4 6 1006.7 - - - - - - - - -
31/04:00am 26.1 E 4 5 1006.6 - - - - - - - - -
31/03:30am 26.2 E 5 8 1006.5 - - - - - - - - -
31/03:00am 26.3 E 7 9 1006.4 - - - - - - - - -
31/02:30am 26.4 E 7 8 1006.5 - - - - - - - - -
31/02:00am 26.4 E 8 9 1006.5 - - - - - - - - -
31/01:30am 26.3 E 7 8 1006.7 - - - - - - - - -
31/01:00am 26.4 E 6 8 1007.1 - - - - - - - - -
31/12:30am 26.5 E 7 9 1007.6 - - - - - - - - -
31/12:00am 26.5 E 7 10 1007.8 - - - - - - - - -
 
Date/Time
EST
Temp

°C
Wind Pressure Rain
since 9am
mm
Weather Cloud Vis
km
Sea
Height
m
Swell
Dir
 
Speed
knots
Gust
knots
hPa Trend Height
m
Period
s
Dir
30/11:30pm 26.6 E 8 10 1008.1 - - - - - - - - -
30/11:00pm 26.7 E 8 10 1008.3 - - - - - - - - -
30/10:30pm 26.6 E 8 10 1008.3 - - - - - - - - -
30/10:00pm 26.7 E 9 11 1008.0 - - - - - - - - -
30/09:30pm 26.7 E 10 11 1007.9 - - - - - - - - -
30/09:00pm 26.7 E 10 12 1007.7 - - - - - - - - -
30/08:30pm 26.8 E 10 12 1007.5 - - - - - - - - -
30/08:00pm 26.8 E 11 13 1007.4 - - - - - - - - -
30/07:30pm 26.7 E 10 12 1007.1 - - - - - - - - -
30/07:00pm 26.9 E 10 12 1006.7 - - - - - - - - -
30/06:30pm 26.9 E 10 12 1006.6 - - - - - - - - -
30/06:00pm 26.9 E 10 12 1006.2 - - - - - - - - -
30/05:30pm 27.1 E 11 13 1006.0 - - - - - - - - -
30/05:00pm 27.2 E 12 14 1005.7 - - - - - - - - -
30/04:30pm 27.1 E 13 15 1005.6 - - - - - - - - -
30/04:00pm 27.2 E 12 16 1005.7 - - - - - - - - -
30/03:30pm 27.3 ESE 12 14 1005.9 - - - - - - - - -
30/03:00pm 27.4 ESE 12 15 1006.2 - - - - - - - - -
30/02:30pm 27.5 ESE 12 14 1006.3 - - - - - - - - -
30/02:00pm 27.5 ESE 13 16 1006.6 - - - - - - - - -
30/01:30pm 27.4 ESE 13 16 1006.9 - - - - - - - - -
30/01:00pm 27.3 ESE 13 16 1007.4 - - - - - - - - -
30/12:30pm 27.1 SE 13 15 1007.7 - - - - - - - - -
30/12:00pm 27.6 SE 14 16 1008.1 - - - - - - - - -
30/11:30am 27.3 SE 14 16 1008.3 - - - - - - - - -
30/11:00am 27.1 SE 14 17 1008.5 - - - - - - - - -
30/10:30am 26.6 SE 14 17 1008.4 - - - - - - - - -
30/10:00am 26.6 SE 15 17 1008.4 - - - - - - - - -
30/09:30am 26.5 SE 16 18 1008.2 - - - - - - - - -
30/09:00am 26.3 SE 16 18 1008.2 - - - - - - - - -
30/08:30am 26.0 SE 16 19 1008.2 - - - - - - - - -
30/08:00am 25.9 SSE 16 18 1008.1 - - - - - - - - -
30/07:30am 25.5 SSE 17 19 1007.9 - - - - - - - - -
30/07:00am 25.4 SSE 17 20 1007.5 - - - - - - - - -
30/06:30am 25.3 SSE 17 20 1007.1 - - - - - - - - -
30/06:00am 25.1 SSE 18 20 1006.8 - - - - - - - - -
30/05:30am 24.8 S 16 18 1006.3 - - - - - - - - -
30/05:00am 25.3 SSE 16 18 1006.0 - - - - - - - - -
30/04:30am 25.9 SSE 16 19 1006.0 - - - - - - - - -
30/04:00am 26.5 SE 17 19 1006.0 - - - - - - - - -
30/03:30am 25.8 SE 19 22 1006.1 - - - - - - - - -
30/03:00am 25.7 SSE 16 19 1006.2 - - - - - - - - -
30/02:30am 26.4 SE 16 18 1006.3 - - - - - - - - -
30/02:00am 26.5 ESE 15 18 1006.5 - - - - - - - - -
30/01:30am 26.3 ESE 16 19 1006.7 - - - - - - - - -
30/01:00am 26.4 ESE 17 20 1007.0 - - - - - - - - -
30/12:30am 26.4 ESE 17 20 1007.3 - - - - - - - - -
30/12:00am 26.4 ESE 18 20 1007.5 - - - - - - - - -
 
Date/Time
EST
Temp

°C
Wind Pressure Rain
since 9am
mm
Weather Cloud Vis
km
Sea
Height
m
Swell
Dir
 
Speed
knots
Gust
knots
hPa Trend Height
m
Period
s
Dir
29/11:30pm 26.5 ESE 19 23 1007.5 - - - - - - - - -
29/11:00pm 26.6 ESE 19 21 1007.7 - - - - - - - - -
29/10:30pm 26.6 ESE 18 20 1007.8 - - - - - - - - -
29/10:00pm 26.7 ESE 16 18 1007.9 - - - - - - - - -
29/09:30pm 26.6 ESE 18 20 1007.7 - - - - - - - - -
29/09:00pm 26.7 ESE 19 21 1007.4 - - - - - - - - -
29/08:30pm 26.7 ESE 17 19 1007.2 - - - - - - - - -
29/08:00pm 26.9 SE 18 21 1007.0 - - - - - - - - -
29/07:30pm 26.9 ESE 18 20 1007.0 - - - - - - - - -
29/07:00pm 26.7 SE 19 22 1006.7 - - - - - - - - -
29/06:30pm 26.3 SE 18 21 1006.3 - - - - - - - - -
29/06:00pm 26.6 SE 19 21 1005.8 - - - - - - - - -
29/05:30pm 26.7 SE 19 23 1005.5 - - - - - - - - -
29/05:00pm 26.8 SE 21 23 1005.1 - - - - - - - - -
29/04:30pm 27.1 SE 19 21 1004.8 - - - - - - - - -
29/04:00pm 26.9 SE 17 20 1005.1 - - - - - - - - -
29/03:30pm 26.7 SE 18 20 1004.9 - - - - - - - - -
29/03:00pm 26.8 SE 18 20 1004.9 - - - - - - - - -
29/02:30pm 26.5 SE 19 21 1004.9 - - - - - - - - -
29/02:00pm 26.6 SE 17 19 1005.1 - - - - - - - - -
29/01:30pm 26.6 SE 17 20 1005.4 - - - - - - - - -
29/01:00pm 26.3 SE 17 21 1005.6 - - - - - - - - -
29/12:30pm 26.5 SE 17 19 1005.9 - - - - - - - - -
29/12:00pm 26.0 SE 17 20 1006.1 - - - - - - - - -
29/11:30am 25.7 SE 16 19 1006.2 - - - - - - - - -
29/11:00am 25.5 SSE 17 19 1006.3 - - - - - - - - -
29/10:30am 25.6 SSE 17 21 1006.4 - - - - - - - - -
29/10:00am 25.1 SSE 17 21 1006.5 - - - - - - - - -
29/09:30am 24.8 SSE 17 21 1006.4 - - - - - - - - -
29/09:00am 24.6 SSE 17 20 1006.5 - - - - - - - - -
29/08:30am 23.9 SSE 17 20 1006.3 - - - - - - - - -
29/08:00am 24.3 SSE 17 20 1006.3 - - - - - - - - -
29/07:30am 23.3 SSE 15 18 1006.1 - - - - - - - - -
29/07:00am 23.9 S 21 24 1005.6 - - - - - - - - -
29/06:30am 23.7 S 20 24 1005.2 - - - - - - - - -
29/06:00am 25.0 SSE 19 25 1004.8 - - - - - - - - -
29/05:30am 24.8 SSE 19 22 1004.3 - - - - - - - - -
29/05:00am 24.1 SSE 19 23 1003.9 - - - - - - - - -
29/04:30am 24.2 SSE 22 25 1003.8 - - - - - - - - -
29/04:00am 24.3 SSE 21 25 1003.8 - - - - - - - - -

Other Formats:

Comma delimited format used in spreadsheet applications
http://www.bom.gov.au/fwo/IDQ60701/IDQ60701.94378.axf

JavaScript Object Notation format (JSON) in row-major order
http://www.bom.gov.au/fwo/IDQ60701/IDQ60701.94378.json